Time;durP1;ratioP1;P1;durP2;ratioP2;P2;SDS_P1;SDS_P2;PMS_P1;PMS_P2;Temp;Humidity;BMP_temperature;BMP_pressure;BME280_temperature;BME280_humidity;BME280_pressure;Samples;Min_cycle;Max_cycle;Signal;HPM_P1;HPM_P2
2020/12/21 00:00:16;;;;;;;;;;;;;;;18.31;71.27;101989.53;5009116;28;1154;-65
2020/12/21 00:02:46;;;;;;;;;;;;;;;18.28;71.16;101981.72;5009179;28;1296;-64
2020/12/21 00:05:13;;;;;;;;;;;;;;;18.27;71.08;101977.38;4991518;28;771;-65
2020/12/21 00:07:39;;;;;;;;;;;;;;;18.25;71.23;101981.84;4991136;28;1996;-65
2020/12/21 00:10:05;;;;;;;;;;;;;;;18.29;71.40;101979.03;4990665;28;1600;-65
2020/12/21 00:12:32;;;;;;;;;;;;;;;18.28;71.36;101972.03;5012693;28;1237;-65
2020/12/21 00:14:59;;;;;;;;;;;;;;;18.26;71.30;101975.66;4995382;28;1178;-64
2020/12/21 00:17:25;;;;;;;;;;;;;;;18.25;71.48;101969.50;5012894;28;1376;-65
2020/12/21 00:19:52;;;;;;;;;;;;;;;18.21;71.35;101970.53;5013214;28;808;-64
2020/12/21 00:22:18;;;;;;;;;;;;;;;18.24;71.30;101975.69;5013119;28;1291;-65
2020/12/21 00:24:45;;;;;;;;;;;;;;;18.25;71.42;101966.00;4995243;28;1071;-65
2020/12/21 00:27:11;;;;;;;;;;;;;;;18.23;71.41;101962.56;5012807;28;1999;-65
2020/12/21 00:29:37;;;;;;;;;;;;;;;18.21;71.59;101952.06;5012786;28;1095;-65
2020/12/21 00:32:03;;;;;;;;;;;;;;;18.19;71.68;101947.75;5012631;28;1319;-64
2020/12/21 00:34:32;;;;;;;;;;;;;;;18.18;71.67;101946.91;4994951;28;1236;-65
2020/12/21 00:37:09;;;;;;;;;;;;;;;18.21;71.45;101943.31;5012572;28;1293;-65
2020/12/21 00:39:35;;;;;;;;;;;;;;;18.20;71.48;101938.94;4978730;28;1229;-66
2020/12/21 00:42:03;;;;;;;;;;;;;;;18.18;71.58;101940.78;5012514;28;1237;-65
2020/12/21 00:44:31;;;;;;;;;;;;;;;18.20;71.67;101941.59;5012472;28;783;-65
2020/12/21 00:46:57;;;;;;;;;;;;;;;18.17;71.70;101945.19;5012295;28;1913;-65
2020/12/21 00:49:24;;;;;;;;;;;;;;;18.18;71.52;101946.06;5012281;28;771;-64
2020/12/21 00:51:50;;;;;;;;;;;;;;;18.16;71.47;101942.59;5012266;28;1304;-65
2020/12/21 00:54:16;;;;;;;;;;;;;;;18.17;71.54;101949.59;4994660;28;1197;-64
2020/12/21 00:56:42;;;;;;;;;;;;;;;18.17;71.44;101936.41;5011554;28;1217;-65
2020/12/21 00:59:08;;;;;;;;;;;;;;;18.19;71.57;101943.34;5011151;28;782;-65
2020/12/21 01:01:34;;;;;;;;;;;;;;;18.18;71.55;101940.78;5011484;28;1272;-65
2020/12/21 01:04:02;;;;;;;;;;;;;;;18.17;71.33;101941.69;5011886;28;799;-65
2020/12/21 01:06:33;;;;;;;;;;;;;;;18.15;71.44;101943.53;5012135;28;1910;-66
2020/12/21 01:08:59;;;;;;;;;;;;;;;18.15;71.43;101946.19;5012011;28;933;-65
2020/12/21 01:11:28;;;;;;;;;;;;;;;18.19;71.14;101945.13;5011864;28;1319;-66
2020/12/21 01:13:55;;;;;;;;;;;;;;;18.18;71.38;101957.44;5011859;28;799;-65
2020/12/21 01:16:21;;;;;;;;;;;;;;;18.15;71.38;101962.84;5011871;28;1292;-66
2020/12/21 01:18:48;;;;;;;;;;;;;;;18.14;71.32;101957.63;5011584;28;1174;-66
2020/12/21 01:21:28;;;;;;;;;;;;;;;18.14;71.48;101965.53;4994216;28;1217;-65
2020/12/21 01:24:03;;;;;;;;;;;;;;;18.14;71.48;101952.34;5010394;28;981;-65
2020/12/21 01:26:46;;;;;;;;;;;;;;;18.12;71.46;101956.84;5011316;28;1893;-66
2020/12/21 01:29:13;;;;;;;;;;;;;;;18.13;71.42;101953.25;4993388;28;1275;-65
2020/12/21 01:31:40;;;;;;;;;;;;;;;18.13;71.31;101961.16;5011567;28;1229;-64
2020/12/21 01:34:10;;;;;;;;;;;;;;;18.12;71.13;101960.31;5011693;28;864;-63
2020/12/21 01:36:36;;;;;;;;;;;;;;;18.12;71.21;101959.47;5010981;28;1225;-63
2020/12/21 01:39:02;;;;;;;;;;;;;;;18.11;71.12;101960.38;4993974;28;1246;-65
2020/12/21 01:41:29;;;;;;;;;;;;;;;18.14;70.96;101949.72;4993627;28;1355;-64
2020/12/21 01:43:55;;;;;;;;;;;;;;;18.12;71.16;101960.31;4993830;28;1091;-65
2020/12/21 01:46:22;;;;;;;;;;;;;;;18.13;70.95;101961.16;5011482;28;1934;-65
2020/12/21 01:48:48;;;;;;;;;;;;;;;18.12;71.18;101968.22;5011406;28;1246;-64
2020/12/21 01:51:21;;;;;;;;;;;;;;;18.11;71.23;101970.91;5011447;28;1214;-63
2020/12/21 01:53:47;;;;;;;;;;;;;;;18.10;71.16;101969.19;4993642;28;1014;-65
2020/12/21 01:56:17;;;;;;;;;;;;;;;18.13;70.92;101974.34;5011236;28;1213;-65
2020/12/21 01:58:45;;;;;;;;;;;;;;;18.06;71.01;101978.97;5010398;28;1050;-66
2020/12/21 02:01:13;;;;;;;;;;;;;;;18.08;70.97;101978.94;5011463;28;1249;-66
2020/12/21 02:03:41;;;;;;;;;;;;;;;18.06;71.23;101971.06;5011307;28;1042;-66
2020/12/21 02:06:08;;;;;;;;;;;;;;;18.07;71.12;101967.53;4993627;28;1249;-65
2020/12/21 02:08:34;;;;;;;;;;;;;;;18.07;71.18;101959.63;5010863;28;1997;-65
2020/12/21 02:11:01;;;;;;;;;;;;;;;18.11;70.98;101965.66;4992962;28;1241;-65
2020/12/21 02:13:27;;;;;;;;;;;;;;;18.08;70.92;101971.03;5011097;28;1001;-66
2020/12/21 02:15:54;;;;;;;;;;;;;;;18.09;70.66;101972.75;4993118;28;1328;-66
2020/12/21 02:18:20;;;;;;;;;;;;;;;18.03;70.97;101971.16;5010594;28;1374;-65
2020/12/21 02:20:46;;;;;;;;;;;;;;;18.04;71.02;101970.28;5011162;28;1311;-66
2020/12/21 02:23:13;;;;;;;;;;;;;;;18.08;71.06;101973.66;5010647;28;1217;-63
2020/12/21 02:25:40;;;;;;;;;;;;;;;18.03;71.28;101964.13;4993621;28;1219;-66
2020/12/21 02:28:07;;;;;;;;;;;;;;;18.03;71.32;101956.22;5010551;28;1975;-65
2020/12/21 02:30:36;;;;;;;;;;;;;;;18.06;71.01;101962.28;4992986;28;1269;-69
2020/12/21 02:33:16;;;;;;;;;;;;;;;18.08;70.96;101957.84;5008054;28;1352;-66
2020/12/21 02:35:42;;;;;;;;;;;;;;;18.08;70.85;101955.22;5010386;28;1281;-64
2020/12/21 02:38:09;;;;;;;;;;;;;;;18.06;70.90;101949.09;4992151;28;1245;-65
2020/12/21 02:40:39;;;;;;;;;;;;;;;18.06;70.94;101951.75;5010681;28;1333;-65
2020/12/21 02:43:21;;;;;;;;;;;;;;;18.05;70.79;101944.78;5010405;28;1096;-65
2020/12/21 02:45:47;;;;;;;;;;;;;;;18.01;70.68;101939.59;5010346;28;1264;-65
2020/12/21 02:48:13;;;;;;;;;;;;;;;18.06;70.78;101938.56;5009930;28;1981;-65
2020/12/21 02:50:41;;;;;;;;;;;;;;;18.05;70.69;101939.50;5010681;28;1156;-65
2020/12/21 02:53:11;;;;;;;;;;;;;;;18.03;70.72;101931.63;5010047;28;1300;-65
2020/12/21 02:55:37;;;;;;;;;;;;;;;18.03;70.77;101934.25;4992641;28;1358;-64
2020/12/21 02:58:03;;;;;;;;;;;;;;;17.95;70.75;101916.09;5009913;28;1300;-65
2020/12/21 03:00:33;;;;;;;;;;;;;;;18.01;70.51;101915.88;4992089;28;1185;-64
2020/12/21 03:03:03;;;;;;;;;;;;;;;18.00;70.55;101908.00;4992319;28;1194;-65
2020/12/21 03:05:30;;;;;;;;;;;;;;;18.00;70.61;101914.13;4992442;28;1193;-65
2020/12/21 03:07:57;;;;;;;;;;;;;;;17.99;70.69;101924.75;5009337;28;1910;-66
2020/12/21 03:10:23;;;;;;;;;;;;;;;18.01;70.53;101922.91;5009577;28;1147;-65
2020/12/21 03:12:50;;;;;;;;;;;;;;;18.00;70.77;101923.81;5009506;28;1249;-65
2020/12/21 03:15:16;;;;;;;;;;;;;;;18.02;70.81;101925.47;4992373;28;1225;-65
2020/12/21 03:17:42;;;;;;;;;;;;;;;18.00;70.85;101929.97;5009512;28;1363;-65
2020/12/21 03:20:09;;;;;;;;;;;;;;;17.99;70.84;101924.75;4992013;28;1173;-65
2020/12/21 03:22:35;;;;;;;;;;;;;;;17.98;70.78;101930.94;5009576;28;1233;-65
2020/12/21 03:25:02;;;;;;;;;;;;;;;17.99;70.94;101920.31;5009757;28;1146;-64
2020/12/21 03:27:29;;;;;;;;;;;;;;;18.00;70.93;101915.91;5009597;28;1985;-64
2020/12/21 03:29:56;;;;;;;;;;;;;;;17.97;70.73;101911.63;4991739;28;1152;-65
2020/12/21 03:32:22;;;;;;;;;;;;;;;17.96;71.00;101917.78;5013573;28;1540;-65
2020/12/21 03:34:48;;;;;;;;;;;;;;;17.97;71.02;101911.63;5009634;28;1050;-65
2020/12/21 03:37:14;;;;;;;;;;;;;;;17.94;71.07;101911.72;5009107;28;1217;-64
2020/12/21 03:39:41;;;;;;;;;;;;;;;17.96;71.06;101909.88;5009301;28;1489;-66
2020/12/21 03:42:07;;;;;;;;;;;;;;;17.94;70.85;101910.84;5009100;28;1296;-65
2020/12/21 03:44:33;;;;;;;;;;;;;;;17.94;70.76;101909.09;5009483;28;1136;-64
2020/12/21 03:46:59;;;;;;;;;;;;;;;17.93;70.92;101902.06;5008423;28;1981;-64
2020/12/21 03:49:25;;;;;;;;;;;;;;;17.94;70.87;101911.72;4991647;28;1024;-64
2020/12/21 03:51:51;;;;;;;;;;;;;;;17.94;70.91;101903.81;5009239;28;1233;-66
2020/12/21 03:54:20;;;;;;;;;;;;;;;17.94;70.94;101905.59;5009444;28;1285;-64
2020/12/21 03:56:47;;;;;;;;;;;;;;;17.98;70.73;101902.81;5009696;28;1233;-64
2020/12/21 03:59:13;;;;;;;;;;;;;;;17.94;70.75;101906.44;5009175;28;1288;-64
2020/12/21 04:01:40;;;;;;;;;;;;;;;17.94;70.76;101911.72;5009020;28;1221;-64
2020/12/21 04:04:07;;;;;;;;;;;;;;;17.95;70.67;101920.50;4992045;28;1044;-65
2020/12/21 04:06:34;;;;;;;;;;;;;;;17.92;70.63;101926.75;5009266;28;1902;-64
2020/12/21 04:09:00;;;;;;;;;;;;;;;18.00;70.56;101929.97;5009400;28;1161;-65
2020/12/21 04:11:30;;;;;;;;;;;;;;;17.93;70.48;101925.81;5009261;28;1331;-64
2020/12/21 04:13:56;;;;;;;;;;;;;;;17.95;70.57;101924.00;4991700;28;1352;-67
2020/12/21 04:16:23;;;;;;;;;;;;;;;17.93;70.92;101925.81;5009162;28;1225;-66
2020/12/21 04:18:49;;;;;;;;;;;;;;;17.91;70.76;101932.91;5009296;28;1591;-63
2020/12/21 04:21:15;;;;;;;;;;;;;;;17.92;70.81;101934.66;5009084;28;1240;-65
2020/12/21 04:23:42;;;;;;;;;;;;;;;17.94;70.94;101937.22;5008823;28;1133;-64
2020/12/21 04:26:08;;;;;;;;;;;;;;;17.91;71.01;101925.00;5009049;28;1312;-64
2020/12/21 04:28:35;;;;;;;;;;;;;;;17.92;70.82;101934.66;5009234;28;1910;-65
2020/12/21 04:31:02;;;;;;;;;;;;;;;17.90;70.93;101931.19;5008638;28;1296;-64
2020/12/21 04:33:28;;;;;;;;;;;;;;;17.92;70.87;101939.06;4991237;28;1119;-65
2020/12/21 04:36:13;;;;;;;;;;;;;;;17.91;70.61;101932.91;4990619;28;1316;-64
2020/12/21 04:38:42;;;;;;;;;;;;;;;17.92;70.71;101929.38;5008180;28;1601;-64
2020/12/21 04:41:08;;;;;;;;;;;;;;;17.89;70.62;101918.06;4990292;28;1337;-64
2020/12/21 04:43:35;;;;;;;;;;;;;;;17.90;70.51;101919.81;5007763;28;1126;-64
2020/12/21 04:46:06;;;;;;;;;;;;;;;17.88;70.69;101918.97;5008531;28;1249;-65
2020/12/21 04:48:42;;;;;;;;;;;;;;;17.87;70.50;101931.28;5008624;28;1918;-65
2020/12/21 04:51:08;;;;;;;;;;;;;;;17.90;70.37;101923.28;5008613;28;1261;-64
2020/12/21 04:53:38;;;;;;;;;;;;;;;17.89;70.61;101924.22;4974830;28;1026;-65
2020/12/21 04:56:05;;;;;;;;;;;;;;;17.89;70.57;101928.63;5008481;28;1248;-66
2020/12/21 04:58:32;;;;;;;;;;;;;;;17.88;70.75;101921.63;5011707;28;1088;-66
2020/12/21 05:00:58;;;;;;;;;;;;;;;17.87;70.68;101910.22;5011611;28;1218;-66
2020/12/21 05:03:24;;;;;;;;;;;;;;;17.90;70.60;101904.00;5012386;28;790;-66
2020/12/21 05:05:51;;;;;;;;;;;;;;;17.89;70.50;101913.66;5012479;28;1108;-66
2020/12/21 05:08:18;;;;;;;;;;;;;;;17.87;70.61;101909.38;5011916;28;1906;-64
2020/12/21 05:11:04;;;;;;;;;;;;;;;17.82;70.64;101904.25;5012395;28;1299;-65
2020/12/21 05:13:34;;;;;;;;;;;;;;;17.85;70.60;101905.91;4994208;28;1092;-63
2020/12/21 05:16:00;;;;;;;;;;;;;;;17.86;70.57;101911.16;5011779;28;1312;-64
2020/12/21 05:18:29;;;;;;;;;;;;;;;17.87;70.55;101912.00;5011612;28;1091;-63
2020/12/21 05:20:55;;;;;;;;;;;;;;;17.85;70.77;101900.63;5011925;28;1135;-66
2020/12/21 05:23:22;;;;;;;;;;;;;;;17.79;70.70;101907.00;4994240;28;1105;-66
2020/12/21 05:25:57;;;;;;;;;;;;;;;17.82;70.57;101906.88;5012162;28;872;-64
2020/12/21 05:28:26;;;;;;;;;;;;;;;17.84;70.46;101902.41;5011200;28;1914;-66
2020/12/21 05:30:54;;;;;;;;;;;;;;;17.84;70.52;101898.94;5011608;28;1060;-64
2020/12/21 05:33:21;;;;;;;;;;;;;;;17.85;70.62;101903.28;5011833;28;1210;-64
2020/12/21 05:35:47;;;;;;;;;;;;;;;17.84;70.46;101909.47;5011971;28;1145;-63
2020/12/21 05:38:23;;;;;;;;;;;;;;;17.88;70.37;101901.41;5011694;28;1316;-64
2020/12/21 05:40:50;;;;;;;;;;;;;;;17.86;70.30;101900.59;4992389;28;1053;-65
2020/12/21 05:43:26;;;;;;;;;;;;;;;17.88;70.24;101900.53;4991769;28;1246;-66
2020/12/21 05:46:05;;;;;;;;;;;;;;;17.85;70.41;101901.50;4974345;28;783;-64
2020/12/21 05:48:32;;;;;;;;;;;;;;;17.83;70.35;101900.72;4974158;28;1981;-64
2020/12/21 05:51:02;;;;;;;;;;;;;;;17.84;70.27;101896.31;4990272;28;1319;-64
2020/12/21 05:53:33;;;;;;;;;;;;;;;17.85;70.30;101898.88;4991799;28;1050;-64
2020/12/21 05:56:00;;;;;;;;;;;;;;;17.84;70.12;101905.03;4996726;28;1272;-64
2020/12/21 05:58:33;;;;;;;;;;;;;;;17.82;70.08;101904.25;4993395;28;1809;-65
2020/12/21 06:01:03;;;;;;;;;;;;;;;17.80;70.34;101900.81;4993502;28;1628;-65
2020/12/21 06:03:35;;;;;;;;;;;;;;;17.83;70.22;101898.06;5011129;28;1007;-65
2020/12/21 06:06:06;;;;;;;;;;;;;;;17.82;70.13;101901.59;4992370;28;1553;-64
2020/12/21 06:08:33;;;;;;;;;;;;;;;17.82;70.12;101901.59;4992840;28;1922;-64
2020/12/21 06:11:07;;;;;;;;;;;;;;;17.80;70.10;101902.59;4993374;28;1245;-64
2020/12/21 06:13:36;;;;;;;;;;;;;;;17.83;70.19;101908.63;4993420;28;1161;-64
2020/12/21 06:16:04;;;;;;;;;;;;;;;17.82;70.11;101912.16;5010791;28;1269;-64
2020/12/21 06:18:31;;;;;;;;;;;;;;;17.80;70.18;101908.72;5010734;28;1468;-64
2020/12/21 06:20:57;;;;;;;;;;;;;;;17.76;70.23;101915.00;4993221;28;1347;-64
2020/12/21 06:23:37;;;;;;;;;;;;;;;17.81;70.19;101914.84;5010558;28;1087;-65
2020/12/21 06:26:08;;;;;;;;;;;;;;;17.79;70.03;101914.03;5010680;28;1257;-64
2020/12/21 06:28:34;;;;;;;;;;;;;;;17.78;69.68;101913.16;4992858;28;1910;-66
2020/12/21 06:31:19;;;;;;;;;;;;;;;17.80;70.02;101916.63;4993123;28;1319;-66
2020/12/21 06:33:47;;;;;;;;;;;;;;;17.84;70.32;101918.22;4992949;28;1319;-63
2020/12/21 06:36:13;;;;;;;;;;;;;;;17.89;70.15;101916.31;5010041;28;1524;-63
2020/12/21 06:38:45;;;;;;;;;;;;;;;17.85;70.12;101916.44;5010474;28;1048;-64
2020/12/21 06:41:16;;;;;;;;;;;;;;;17.80;70.32;101916.63;4993014;28;1320;-66
2020/12/21 06:44:04;;;;;;;;;;;;;;;17.80;70.29;101929.81;5010621;28;939;-64
2020/12/21 06:46:32;;;;;;;;;;;;;;;17.80;70.54;101924.53;5010518;28;1316;-67
2020/12/21 06:49:18;;;;;;;;;;;;;;;17.80;70.05;101929.81;5010298;28;1313;-63
2020/12/21 06:51:45;;;;;;;;;;;;;;;17.83;70.06;101928.84;4992423;28;1324;-65
2020/12/21 06:54:12;;;;;;;;;;;;;;;17.81;70.17;101930.66;5010087;28;1053;-64
2020/12/21 06:56:43;;;;;;;;;;;;;;;17.84;69.97;101920.84;4992336;28;1395;-64
2020/12/21 06:59:11;;;;;;;;;;;;;;;17.83;70.20;101921.78;4992284;28;1406;-64
2020/12/21 07:01:38;;;;;;;;;;;;;;;17.84;70.03;101926.13;4992068;28;1269;-64
2020/12/21 07:04:08;;;;;;;;;;;;;;;17.81;70.31;101931.50;5009973;28;1135;-64
2020/12/21 07:06:36;;;;;;;;;;;;;;;17.82;70.21;101937.66;5009791;28;1233;-65
2020/12/21 07:09:02;;;;;;;;;;;;;;;17.81;70.36;101935.94;4992140;28;1987;-65
2020/12/21 07:11:29;;;;;;;;;;;;;;;17.78;70.40;101934.25;5009678;28;1256;-65
2020/12/21 07:13:56;;;;;;;;;;;;;;;17.89;70.85;101929.47;4975723;28;1149;-66
2020/12/21 07:16:23;;;;;;;;;;;;;;;18.09;70.19;101936.69;5008090;28;1640;-63
2020/12/21 07:18:50;;;;;;;;;;;;;;;18.12;70.04;101936.56;4991008;28;1483;-65
2020/12/21 07:21:16;;;;;;;;;;;;;;;18.03;69.42;101935.13;5008492;28;1272;-66
2020/12/21 07:23:43;;;;;;;;;;;;;;;17.93;69.39;101936.34;5009364;28;1008;-64
2020/12/21 07:26:11;;;;;;;;;;;;;;;17.92;69.73;101945.19;5007968;28;1549;-68
2020/12/21 07:28:37;;;;;;;;;;;;;;;17.90;69.64;101944.38;5008900;28;1975;-65
2020/12/21 07:31:08;;;;;;;;;;;;;;;17.90;69.58;101952.28;5008729;28;1635;-69
2020/12/21 07:33:36;;;;;;;;;;;;;;;18.10;69.32;101956.88;4991810;28;940;-67
2020/12/21 07:36:02;;;;;;;;;;;;;;;18.09;69.24;101956.94;5009009;28;1213;-66
2020/12/21 07:38:28;;;;;;;;;;;;;;;18.06;69.51;101962.28;5009359;28;1059;-68
2020/12/21 07:40:55;;;;;;;;;;;;;;;18.01;69.22;101965.97;5009057;28;805;-68
2020/12/21 07:43:27;;;;;;;;;;;;;;;18.10;69.42;101966.56;5009381;28;1057;-67
2020/12/21 07:45:58;;;;;;;;;;;;;;;18.05;69.52;101976.41;5008667;28;873;-68
2020/12/21 07:48:24;;;;;;;;;;;;;;;18.34;69.86;101976.22;4991275;28;1977;-68
2020/12/21 07:50:51;;;;;;;;;;;;;;;18.27;68.68;101977.38;4990731;28;1530;-64
2020/12/21 07:53:19;;;;;;;;;;;;;;;18.24;69.75;101974.84;5008816;28;1253;-66
2020/12/21 07:55:56;;;;;;;;;;;;;;;18.26;69.52;101971.25;5008903;28;1215;-66
2020/12/21 07:58:22;;;;;;;;;;;;;;;18.14;69.56;101971.69;5009022;28;858;-65
2020/12/21 08:00:55;;;;;;;;;;;;;;;18.27;69.72;101980.03;5008674;28;1276;-73
2020/12/21 08:03:23;;;;;;;;;;;;;;;18.24;69.51;101988.03;5008851;28;888;-67
2020/12/21 08:05:49;;;;;;;;;;;;;;;18.15;69.37;101977.81;5012673;28;1054;-67
2020/12/21 08:08:16;;;;;;;;;;;;;;;18.07;68.31;101987.75;5006572;28;2025;-67
2020/12/21 08:10:42;;;;;;;;;;;;;;;18.01;68.50;101987.06;5007996;28;1182;-67
2020/12/21 08:13:17;;;;;;;;;;;;;;;17.98;68.85;101991.56;4988888;28;1280;-68
2020/12/21 08:15:43;;;;;;;;;;;;;;;17.94;68.97;102001.34;4996828;28;1021;-66
2020/12/21 08:18:11;;;;;;;;;;;;;;;18.14;69.48;101998.06;5028339;28;1590;-64
2020/12/21 08:20:56;;;;;;;;;;;;;;;18.01;68.69;102008.16;5028391;28;1001;-66
2020/12/21 08:23:26;;;;;;;;;;;;;;;17.96;68.89;102015.34;5028015;28;786;-67
2020/12/21 08:25:52;;;;;;;;;;;;;;;17.91;68.76;102025.19;4977301;28;1682;-64
2020/12/21 08:28:24;;;;;;;;;;;;;;;17.91;68.77;102019.91;5006072;28;1906;-65
2020/12/21 08:31:02;;;;;;;;;;;;;;;18.10;69.10;102021.94;5009905;28;1088;-66
2020/12/21 08:33:28;;;;;;;;;;;;;;;17.98;69.32;102018.81;5010033;28;1228;-67
2020/12/21 08:35:54;;;;;;;;;;;;;;;17.93;68.54;102015.44;4994626;28;1249;-67
2020/12/21 08:38:32;;;;;;;;;;;;;;;17.91;68.68;102014.63;4976622;28;1347;-67
2020/12/21 08:40:59;;;;;;;;;;;;;;;17.88;69.04;102006.84;4998455;28;1346;-67
2020/12/21 08:43:25;;;;;;;;;;;;;;;17.88;68.80;102004.19;5016385;28;1225;-66
2020/12/21 08:45:51;;;;;;;;;;;;;;;17.87;69.24;102002.47;5015482;28;1255;-66
2020/12/21 08:48:17;;;;;;;;;;;;;;;17.88;69.12;102006.84;5012080;28;1910;-67
2020/12/21 08:50:44;;;;;;;;;;;;;;;17.87;68.96;102009.53;5012179;28;1080;-67
2020/12/21 08:53:10;;;;;;;;;;;;;;;17.88;68.95;102013.88;5020413;28;1276;-67
2020/12/21 08:55:36;;;;;;;;;;;;;;;18.11;69.23;102005.19;4994842;28;1240;-65
2020/12/21 08:58:03;;;;;;;;;;;;;;;18.06;68.18;102000.06;5013741;28;1303;-66
2020/12/21 09:00:29;;;;;;;;;;;;;;;17.91;68.27;102006.72;5011786;28;1225;-65
2020/12/21 09:02:55;;;;;;;;;;;;;;;17.84;68.33;102010.47;5023314;28;1229;-64
2020/12/21 09:05:21;;;;;;;;;;;;;;;17.83;68.45;102014.03;4993019;28;1241;-66
2020/12/21 09:07:49;;;;;;;;;;;;;;;17.80;68.34;102014.16;5016054;28;1907;-65
2020/12/21 09:10:15;;;;;;;;;;;;;;;17.95;69.65;102018.03;5009689;28;1182;-65
2020/12/21 09:12:41;;;;;;;;;;;;;;;18.01;68.00;102013.44;5006813;28;1315;-64
2020/12/21 09:15:07;;;;;;;;;;;;;;;17.81;67.99;102007.94;4991627;28;1236;-65
2020/12/21 09:17:33;;;;;;;;;;;;;;;17.85;67.98;102028.03;5012064;28;1308;-66
2020/12/21 09:20:00;;;;;;;;;;;;;;;17.84;68.07;102030.72;5006808;28;1198;-64
2020/12/21 09:22:26;;;;;;;;;;;;;;;17.84;68.30;102028.94;4991736;28;1384;-65
2020/12/21 09:24:52;;;;;;;;;;;;;;;18.13;69.38;102041.16;5009793;28;1103;-66
2020/12/21 09:27:19;;;;;;;;;;;;;;;18.15;68.94;102041.09;4991893;28;1914;-66
2020/12/21 09:29:45;;;;;;;;;;;;;;;18.08;68.72;102036.94;4991289;28;1343;-66
2020/12/21 09:32:11;;;;;;;;;;;;;;;17.97;68.38;102032.88;5015920;28;1276;-66
2020/12/21 09:34:37;;;;;;;;;;;;;;;17.88;67.88;102034.97;4990730;28;1223;-66
2020/12/21 09:37:04;;;;;;;;;;;;;;;17.86;67.98;102034.16;5011103;28;1354;-66
2020/12/21 09:39:30;;;;;;;;;;;;;;;17.82;68.23;102040.44;4991416;28;1174;-68
2020/12/21 09:41:56;;;;;;;;;;;;;;;17.81;68.20;102030.81;5008483;28;1226;-64
2020/12/21 09:44:22;;;;;;;;;;;;;;;17.81;68.17;102031.66;5008541;28;1134;-66
2020/12/21 09:46:51;;;;;;;;;;;;;;;17.79;68.19;102033.50;5009312;28;1299;-68
2020/12/21 09:49:18;;;;;;;;;;;;;;;17.80;68.48;102035.22;4991885;28;1975;-67
2020/12/21 09:51:49;;;;;;;;;;;;;;;17.82;68.88;102045.72;5009546;28;1288;-67
2020/12/21 09:54:15;;;;;;;;;;;;;;;17.81;69.26;102030.81;5009566;28;1122;-67
2020/12/21 09:56:45;;;;;;;;;;;;;;;17.86;69.11;102029.75;4991922;28;1383;-64
2020/12/21 09:59:11;;;;;;;;;;;;;;;17.86;69.63;102039.44;4991902;28;980;-66
2020/12/21 10:01:37;;;;;;;;;;;;;;;17.84;69.79;102030.72;5009713;28;1332;-67
2020/12/21 10:04:04;;;;;;;;;;;;;;;17.82;70.42;102036.03;5009571;28;1119;-66
2020/12/21 10:06:30;;;;;;;;;;;;;;;17.82;70.59;102030.75;5008351;28;1319;-66
2020/12/21 10:08:56;;;;;;;;;;;;;;;17.80;70.19;102022.06;4991530;28;1914;-66
2020/12/21 10:11:23;;;;;;;;;;;;;;;17.82;69.51;102022.00;4991157;28;1311;-66
2020/12/21 10:13:49;;;;;;;;;;;;;;;17.82;69.49;102022.00;5008728;28;1166;-66
2020/12/21 10:16:15;;;;;;;;;;;;;;;17.81;69.23;102018.47;5008827;28;1272;-66
2020/12/21 10:18:42;;;;;;;;;;;;;;;17.80;69.29;102013.28;4991117;28;1605;-67
2020/12/21 10:21:08;;;;;;;;;;;;;;;17.80;69.25;102011.50;5008798;28;1319;-66
2020/12/21 10:23:34;;;;;;;;;;;;;;;17.77;69.03;102003.72;4991062;28;1312;-67
2020/12/21 10:26:05;;;;;;;;;;;;;;;17.77;69.13;102001.06;5004875;28;1383;-65
2020/12/21 10:28:31;;;;;;;;;;;;;;;17.77;69.39;101998.44;5008562;28;2001;-67
2020/12/21 10:30:57;;;;;;;;;;;;;;;17.78;69.49;101999.31;5008961;28;1378;-67
2020/12/21 10:33:24;;;;;;;;;;;;;;;17.83;69.23;102000.00;5008964;28;1157;-67
2020/12/21 10:35:50;;;;;;;;;;;;;;;17.81;69.42;101999.19;4990961;28;1147;-68
2020/12/21 10:38:17;;;;;;;;;;;;;;;17.80;69.12;102000.97;4990846;28;1292;-66
2020/12/21 10:40:43;;;;;;;;;;;;;;;17.78;69.21;101996.66;5008314;28;1197;-67
2020/12/21 10:43:09;;;;;;;;;;;;;;;17.79;68.93;102003.63;5008389;28;1236;-67
2020/12/21 10:45:36;;;;;;;;;;;;;;;17.77;69.21;102005.47;5008743;28;1178;-66
2020/12/21 10:48:03;;;;;;;;;;;;;;;17.75;69.30;102004.69;5008357;28;1981;-65
2020/12/21 10:50:30;;;;;;;;;;;;;;;17.79;68.98;102009.78;5008849;28;1170;-66
2020/12/21 10:52:56;;;;;;;;;;;;;;;17.79;69.00;102004.50;4990841;28;1229;-66
2020/12/21 10:55:23;;;;;;;;;;;;;;;17.76;69.31;102001.09;5008230;28;1170;-66
2020/12/21 10:57:49;;;;;;;;;;;;;;;17.75;69.39;101992.34;5008413;28;1308;-66
2020/12/21 11:00:15;;;;;;;;;;;;;;;17.81;70.12;101993.94;5007899;28;1150;-66
2020/12/21 11:02:41;;;;;;;;;;;;;;;17.80;70.81;101995.69;4974528;28;1408;-65
2020/12/21 11:05:08;;;;;;;;;;;;;;;17.94;70.37;101984.66;4990373;28;1421;-66
2020/12/21 11:07:34;;;;;;;;;;;;;;;17.96;70.44;101980.22;5007894;28;1919;-66
2020/12/21 11:10:12;;;;;;;;;;;;;;;17.84;70.42;101978.00;4976114;28;1335;-68
2020/12/21 11:12:39;;;;;;;;;;;;;;;17.79;69.88;101969.38;5008086;28;1244;-66
2020/12/21 11:15:06;;;;;;;;;;;;;;;17.80;70.46;101971.97;4990449;28;1568;-66
2020/12/21 11:17:32;;;;;;;;;;;;;;;17.74;71.50;101980.09;5008150;28;1382;-67
2020/12/21 11:19:59;;;;;;;;;;;;;;;17.73;71.91;101970.44;5008410;28;1142;-68
2020/12/21 11:22:26;;;;;;;;;;;;;;;17.75;72.53;101970.41;4990312;28;1708;-67
2020/12/21 11:24:52;;;;;;;;;;;;;;;17.74;72.54;101972.19;5007117;28;1342;-66
2020/12/21 11:27:18;;;;;;;;;;;;;;;17.78;72.96;101975.59;4989602;28;1959;-67
2020/12/21 11:29:44;;;;;;;;;;;;;;;17.79;72.96;101958.84;4989442;28;1293;-67
2020/12/21 11:32:20;;;;;;;;;;;;;;;17.75;73.25;101960.72;4990775;28;1265;-68
2020/12/21 11:34:46;;;;;;;;;;;;;;;17.80;72.24;101953.53;4989191;28;1175;-67
2020/12/21 11:37:13;;;;;;;;;;;;;;;17.80;71.27;101955.28;5007800;28;1272;-67
2020/12/21 11:39:39;;;;;;;;;;;;;;;17.84;72.51;101957.75;4989353;28;1291;-68
2020/12/21 11:42:09;;;;;;;;;;;;;;;17.81;72.89;101955.22;5007198;28;1221;-68
2020/12/21 11:44:36;;;;;;;;;;;;;;;17.76;72.58;101940.50;5007891;28;1174;-68
2020/12/21 11:47:07;;;;;;;;;;;;;;;17.75;72.69;101939.63;4990314;28;1304;-68
2020/12/21 11:49:33;;;;;;;;;;;;;;;17.76;72.62;101944.00;4989781;28;1993;-68
2020/12/21 11:51:59;;;;;;;;;;;;;;;17.73;72.95;101935.31;5007950;28;1229;-68
2020/12/21 11:54:26;;;;;;;;;;;;;;;17.96;72.33;101933.59;5005057;28;1206;-67
2020/12/21 11:56:55;;;;;;;;;;;;;;;18.00;71.21;101942.28;4973614;28;1398;-68
2020/12/21 11:59:22;;;;;;;;;;;;;;;17.83;70.78;101931.47;4988826;28;1291;-66
2020/12/21 12:02:00;;;;;;;;;;;;;;;17.83;70.39;101929.69;4995710;28;1300;-67
2020/12/21 12:04:27;;;;;;;;;;;;;;;17.77;69.99;101937.81;4989297;28;1167;-68
2020/12/21 12:06:54;;;;;;;;;;;;;;;17.76;69.75;101935.22;5006628;28;1338;-65
2020/12/21 12:09:24;;;;;;;;;;;;;;;17.77;69.92;101929.91;5006980;28;1973;-67
2020/12/21 12:11:51;;;;;;;;;;;;;;;17.76;69.42;101922.03;5007376;28;1362;-68
2020/12/21 12:14:17;;;;;;;;;;;;;;;17.75;70.18;101925.63;5007742;28;1117;-67
2020/12/21 12:16:43;;;;;;;;;;;;;;;17.77;69.55;101924.63;4989883;28;1380;-68
2020/12/21 12:19:09;;;;;;;;;;;;;;;17.79;70.36;101925.44;5006955;28;1240;-68
2020/12/21 12:21:36;;;;;;;;;;;;;;;17.77;69.03;101927.28;5007720;28;1276;-67
2020/12/21 12:24:02;;;;;;;;;;;;;;;17.81;69.81;101920.13;4988609;28;1337;-67
2020/12/21 12:26:28;;;;;;;;;;;;;;;17.83;70.76;101920.94;4988102;28;1394;-67
2020/12/21 12:28:56;;;;;;;;;;;;;;;17.88;70.36;101918.97;4988708;28;1906;-74
2020/12/21 12:31:23;;;;;;;;;;;;;;;17.56;62.25;101909.56;5006390;28;1276;-72
2020/12/21 12:33:50;;;;;;;;;;;;;;;17.32;59.98;101910.34;5007667;28;1073;-67
2020/12/21 12:36:17;;;;;;;;;;;;;;;17.38;58.50;101913.66;5006523;28;1314;-67
2020/12/21 12:38:44;;;;;;;;;;;;;;;17.62;60.65;101901.44;5004803;28;1128;-68
2020/12/21 12:41:10;;;;;;;;;;;;;;;17.68;60.25;101892.47;4988494;28;1311;-71
2020/12/21 12:43:36;;;;;;;;;;;;;;;17.61;60.12;101896.22;5013424;28;1120;-69
2020/12/21 12:46:06;;;;;;;;;;;;;;;17.56;60.19;101885.84;5011077;28;1280;-69
2020/12/21 12:48:33;;;;;;;;;;;;;;;17.58;59.76;101893.69;5012305;28;1966;-71
2020/12/21 12:51:00;;;;;;;;;;;;;;;17.53;59.88;101887.69;5026856;28;1330;-69